sensor_id;sensor_type;location;lat;lon;timestamp;pressure;altitude;pressure_sealevel;temperature;humidity
74065;BME280;62421;51.412;5.432;2024-03-08T00:00:08;101642.28;;;2.62;100.00
74065;BME280;62421;51.412;5.432;2024-03-08T00:02:43;101633.47;;;2.60;100.00
74065;BME280;62421;51.412;5.432;2024-03-08T00:05:09;101643.22;;;2.59;100.00
74065;BME280;62421;51.412;5.432;2024-03-08T00:07:35;101638.91;;;2.55;100.00
74065;BME280;62421;51.412;5.432;2024-03-08T00:10:02;101631.91;;;2.53;100.00
74065;BME280;62421;51.412;5.432;2024-03-08T00:12:27;101627.50;;;2.52;100.00
74065;BME280;62421;51.412;5.432;2024-03-08T00:14:53;101624.03;;;2.50;100.00
74065;BME280;62421;51.412;5.432;2024-03-08T00:17:20;101639.09;;;2.48;100.00
74065;BME280;62421;51.412;5.432;2024-03-08T00:19:48;101631.19;;;2.46;100.00
74065;BME280;62421;51.412;5.432;2024-03-08T00:22:15;101621.47;;;2.45;100.00
74065;BME280;62421;51.412;5.432;2024-03-08T00:24:41;101619.75;;;2.44;100.00
74065;BME280;62421;51.412;5.432;2024-03-08T00:27:06;101620.59;;;2.44;100.00
74065;BME280;62421;51.412;5.432;2024-03-08T00:29:31;101626.81;;;2.43;100.00
74065;BME280;62421;51.412;5.432;2024-03-08T00:31:56;101620.69;;;2.41;100.00
74065;BME280;62421;51.412;5.432;2024-03-08T00:34:23;101608.31;;;2.40;100.00
74065;BME280;62421;51.412;5.432;2024-03-08T00:36:48;101615.44;;;2.38;100.00
74065;BME280;62421;51.412;5.432;2024-03-08T00:39:14;101609.25;;;2.39;100.00
74065;BME280;62421;51.412;5.432;2024-03-08T00:41:39;101610.19;;;2.37;100.00
74065;BME280;62421;51.412;5.432;2024-03-08T00:44:04;101612.06;;;2.32;100.00
74065;BME280;62421;51.412;5.432;2024-03-08T00:46:30;101613.03;;;2.29;100.00
74065;BME280;62421;51.412;5.432;2024-03-08T00:48:56;101599.00;;;2.24;100.00
74065;BME280;62421;51.412;5.432;2024-03-08T00:51:22;101606.03;;;2.25;100.00
74065;BME280;62421;51.412;5.432;2024-03-08T00:53:47;101604.34;;;2.22;100.00
74065;BME280;62421;51.412;5.432;2024-03-08T00:56:13;101598.31;;;2.16;100.00
74065;BME280;62421;51.412;5.432;2024-03-08T00:58:38;101594.03;;;2.09;100.00
74065;BME280;62421;51.412;5.432;2024-03-08T01:01:04;101587.03;;;2.08;100.00
74065;BME280;62421;51.412;5.432;2024-03-08T01:03:30;101586.19;;;2.04;100.00
74065;BME280;62421;51.412;5.432;2024-03-08T01:05:57;101586.34;;;1.98;100.00
74065;BME280;62421;51.412;5.432;2024-03-08T01:08:22;101578.50;;;1.93;100.00
74065;BME280;62421;51.412;5.432;2024-03-08T01:10:48;101581.22;;;1.92;100.00
74065;BME280;62421;51.412;5.432;2024-03-08T01:13:15;101585.59;;;1.93;100.00
74065;BME280;62421;51.412;5.432;2024-03-08T01:15:41;101574.13;;;1.92;100.00
74065;BME280;62421;51.412;5.432;2024-03-08T01:18:06;101572.38;;;1.91;100.00
74065;BME280;62421;51.412;5.432;2024-03-08T01:20:32;101574.13;;;1.92;100.00
74065;BME280;62421;51.412;5.432;2024-03-08T01:22:57;101572.38;;;1.91;100.00
74065;BME280;62421;51.412;5.432;2024-03-08T01:25:22;101563.56;;;1.89;100.00
74065;BME280;62421;51.412;5.432;2024-03-08T01:27:48;101566.28;;;1.88;100.00
74065;BME280;62421;51.412;5.432;2024-03-08T01:30:13;101568.13;;;1.84;100.00
74065;BME280;62421;51.412;5.432;2024-03-08T01:32:41;101571.75;;;1.80;100.00
74065;BME280;62421;51.412;5.432;2024-03-08T01:35:07;101560.34;;;1.76;100.00
74065;BME280;62421;51.412;5.432;2024-03-08T01:37:34;101564.75;;;1.76;100.00
74065;BME280;62421;51.412;5.432;2024-03-08T01:40:00;101557.75;;;1.73;100.00
74065;BME280;62421;51.412;5.432;2024-03-08T01:42:25;101559.59;;;1.70;100.00
74065;BME280;62421;51.412;5.432;2024-03-08T01:44:51;101556.13;;;1.68;100.00
74065;BME280;62421;51.412;5.432;2024-03-08T01:47:17;101539.38;;;1.67;100.00
74065;BME280;62421;51.412;5.432;2024-03-08T01:49:43;101549.06;;;1.68;100.00
74065;BME280;62421;51.412;5.432;2024-03-08T01:52:09;101543.88;;;1.63;100.00
74065;BME280;62421;51.412;5.432;2024-03-08T01:54:36;101547.50;;;1.59;100.00
74065;BME280;62421;51.412;5.432;2024-03-08T01:57:02;101551.06;;;1.57;100.00
74065;BME280;62421;51.412;5.432;2024-03-08T01:59:27;101546.69;;;1.54;100.00
74065;BME280;62421;51.412;5.432;2024-03-08T02:02:00;101540.53;;;1.54;100.00
74065;BME280;62421;51.412;5.432;2024-03-08T02:04:26;101535.28;;;1.52;100.00
74065;BME280;62421;51.412;5.432;2024-03-08T02:06:52;101541.47;;;1.51;100.00
74065;BME280;62421;51.412;5.432;2024-03-08T02:09:17;101532.75;;;1.46;100.00
74065;BME280;62421;51.412;5.432;2024-03-08T02:11:42;101533.66;;;1.45;100.00
74065;BME280;62421;51.412;5.432;2024-03-08T02:14:08;101530.09;;;1.48;100.00
74065;BME280;62421;51.412;5.432;2024-03-08T02:16:34;101529.25;;;1.46;100.00
74065;BME280;62421;51.412;5.432;2024-03-08T02:18:59;101516.94;;;1.45;100.00
74065;BME280;62421;51.412;5.432;2024-03-08T02:21:25;101524.06;;;1.39;100.00
74065;BME280;62421;51.412;5.432;2024-03-08T02:23:51;101520.59;;;1.37;100.00
74065;BME280;62421;51.412;5.432;2024-03-08T02:26:20;101510.84;;;1.39;100.00
74065;BME280;62421;51.412;5.432;2024-03-08T02:28:46;101511.78;;;1.37;100.00
74065;BME280;62421;51.412;5.432;2024-03-08T02:31:11;101513.63;;;1.33;100.00
74065;BME280;62421;51.412;5.432;2024-03-08T02:33:37;101512.75;;;1.33;100.00
74065;BME280;62421;51.412;5.432;2024-03-08T02:36:02;101507.53;;;1.30;100.00
74065;BME280;62421;51.412;5.432;2024-03-08T02:38:28;101500.47;;;1.29;100.00
74065;BME280;62421;51.412;5.432;2024-03-08T02:40:53;101493.50;;;1.25;100.00
74065;BME280;62421;51.412;5.432;2024-03-08T02:43:20;101498.03;;;1.19;100.00
74065;BME280;62421;51.412;5.432;2024-03-08T02:45:47;101491.06;;;1.15;100.00
74065;BME280;62421;51.412;5.432;2024-03-08T02:48:13;101492.88;;;1.13;100.00
74065;BME280;62421;51.412;5.432;2024-03-08T02:50:39;101492.03;;;1.11;100.00
74065;BME280;62421;51.412;5.432;2024-03-08T02:53:08;101474.47;;;1.07;100.00
74065;BME280;62421;51.412;5.432;2024-03-08T02:55:33;101480.72;;;1.05;100.00
74065;BME280;62421;51.412;5.432;2024-03-08T02:58:01;101478.94;;;1.05;100.00
74065;BME280;62421;51.412;5.432;2024-03-08T03:00:27;101478.06;;;1.05;100.00
74065;BME280;62421;51.412;5.432;2024-03-08T03:02:53;101468.41;;;1.04;100.00
74065;BME280;62421;51.412;5.432;2024-03-08T03:05:19;101471.91;;;1.04;100.00
74065;BME280;62421;51.412;5.432;2024-03-08T03:07:45;101470.19;;;1.01;100.00
74065;BME280;62421;51.412;5.432;2024-03-08T03:10:10;101459.63;;;1.01;100.00
74065;BME280;62421;51.412;5.432;2024-03-08T03:12:37;101451.63;;;1.03;100.00
74065;BME280;62421;51.412;5.432;2024-03-08T03:15:04;101456.94;;;1.03;100.00
74065;BME280;62421;51.412;5.432;2024-03-08T03:17:29;101449.06;;;1.00;100.00
74065;BME280;62421;51.412;5.432;2024-03-08T03:19:55;101449.94;;;0.99;100.00
74065;BME280;62421;51.412;5.432;2024-03-08T03:22:20;101444.75;;;0.96;100.00
74065;BME280;62421;51.412;5.432;2024-03-08T03:24:46;101448.34;;;0.92;100.00
74065;BME280;62421;51.412;5.432;2024-03-08T03:27:12;101447.53;;;0.88;100.00
74065;BME280;62421;51.412;5.432;2024-03-08T03:29:42;101450.28;;;0.84;100.00
74065;BME280;62421;51.412;5.432;2024-03-08T03:32:14;101442.41;;;0.80;100.00
74065;BME280;62421;51.412;5.432;2024-03-08T03:34:40;101443.31;;;0.79;100.00
74065;BME280;62421;51.412;5.432;2024-03-08T03:37:06;101437.16;;;0.77;100.00
74065;BME280;62421;51.412;5.432;2024-03-08T03:39:37;101441.56;;;0.78;100.00
74065;BME280;62421;51.412;5.432;2024-03-08T03:42:16;101441.56;;;0.80;100.00
74065;BME280;62421;51.412;5.432;2024-03-08T03:44:44;101442.50;;;0.76;100.00
74065;BME280;62421;51.412;5.432;2024-03-08T03:47:10;101434.63;;;0.73;100.00
74065;BME280;62421;51.412;5.432;2024-03-08T03:49:43;101434.75;;;0.67;100.00
74065;BME280;62421;51.412;5.432;2024-03-08T03:52:09;101426.00;;;0.65;100.00
74065;BME280;62421;51.412;5.432;2024-03-08T03:54:34;101424.25;;;0.62;100.00
74065;BME280;62421;51.412;5.432;2024-03-08T03:56:59;101424.31;;;0.60;100.00
74065;BME280;62421;51.412;5.432;2024-03-08T03:59:26;101422.50;;;0.63;100.00
74065;BME280;62421;51.412;5.432;2024-03-08T04:01:52;101426.88;;;0.64;100.00
74065;BME280;62421;51.412;5.432;2024-03-08T04:04:18;101424.25;;;0.62;100.00
74065;BME280;62421;51.412;5.432;2024-03-08T04:06:43;101418.94;;;0.64;100.00
74065;BME280;62421;51.412;5.432;2024-03-08T04:09:10;101420.72;;;0.63;100.00
74065;BME280;62421;51.412;5.432;2024-03-08T04:11:36;101416.34;;;0.62;100.00
74065;BME280;62421;51.412;5.432;2024-03-08T04:14:01;101410.19;;;0.60;100.00
74065;BME280;62421;51.412;5.432;2024-03-08T04:16:27;101421.69;;;0.59;100.00
74065;BME280;62421;51.412;5.432;2024-03-08T04:18:52;101403.22;;;0.56;100.00
74065;BME280;62421;51.412;5.432;2024-03-08T04:21:17;101413.81;;;0.56;100.00
74065;BME280;62421;51.412;5.432;2024-03-08T04:23:44;101398.94;;;0.52;100.00
74065;BME280;62421;51.412;5.432;2024-03-08T04:26:10;101400.75;;;0.50;100.00
74065;BME280;62421;51.412;5.432;2024-03-08T04:28:36;101398.03;;;0.51;100.00
74065;BME280;62421;51.412;5.432;2024-03-08T04:31:03;101396.31;;;0.50;100.00
74065;BME280;62421;51.412;5.432;2024-03-08T04:33:28;101403.41;;;0.48;100.00
74065;BME280;62421;51.412;5.432;2024-03-08T04:35:54;101393.78;;;0.46;100.00
74065;BME280;62421;51.412;5.432;2024-03-08T04:38:19;101401.72;;;0.44;100.00
74065;BME280;62421;51.412;5.432;2024-03-08T04:40:44;101391.16;;;0.43;100.00
74065;BME280;62421;51.412;5.432;2024-03-08T04:43:10;101398.25;;;0.40;100.00
74065;BME280;62421;51.412;5.432;2024-03-08T04:45:36;101397.47;;;0.37;100.00
74065;BME280;62421;51.412;5.432;2024-03-08T04:48:01;101388.72;;;0.33;100.00
74065;BME280;62421;51.412;5.432;2024-03-08T04:50:27;101385.22;;;0.33;100.00
74065;BME280;62421;51.412;5.432;2024-03-08T04:52:54;101390.50;;;0.33;100.00
74065;BME280;62421;51.412;5.432;2024-03-08T04:55:20;101387.78;;;0.36;100.00
74065;BME280;62421;51.412;5.432;2024-03-08T04:57:46;101384.28;;;0.35;100.00
74065;BME280;62421;51.412;5.432;2024-03-08T05:00:12;101382.56;;;0.33;100.00
74065;BME280;62421;51.412;5.432;2024-03-08T05:02:38;101376.53;;;0.26;100.00
74065;BME280;62421;51.412;5.432;2024-03-08T05:05:06;101375.69;;;0.24;100.00
74065;BME280;62421;51.412;5.432;2024-03-08T05:07:31;101375.63;;;0.27;100.00
74065;BME280;62421;51.412;5.432;2024-03-08T05:09:58;101372.88;;;0.32;100.00
74065;BME280;62421;51.412;5.432;2024-03-08T05:12:24;101377.31;;;0.31;100.00
74065;BME280;62421;51.412;5.432;2024-03-08T05:14:49;101365.88;;;0.29;100.00
74065;BME280;62421;51.412;5.432;2024-03-08T05:17:15;101365.88;;;0.29;100.00
74065;BME280;62421;51.412;5.432;2024-03-08T05:19:42;101365.84;;;0.32;100.00
74065;BME280;62421;51.412;5.432;2024-03-08T05:22:07;101357.88;;;0.34;100.00
74065;BME280;62421;51.412;5.432;2024-03-08T05:24:33;101357.94;;;0.32;100.00
74065;BME280;62421;51.412;5.432;2024-03-08T05:26:58;101359.75;;;0.29;100.00
74065;BME280;62421;51.412;5.432;2024-03-08T05:29:25;101360.69;;;0.26;100.00
74065;BME280;62421;51.412;5.432;2024-03-08T05:31:51;101363.34;;;0.23;100.00
74065;BME280;62421;51.412;5.432;2024-03-08T05:34:18;101360.78;;;0.20;100.00
74065;BME280;62421;51.412;5.432;2024-03-08T05:36:45;101355.53;;;0.18;100.00
74065;BME280;62421;51.412;5.432;2024-03-08T05:39:12;101359.84;;;0.23;100.00
74065;BME280;62421;51.412;5.432;2024-03-08T05:41:38;101354.56;;;0.24;100.00
74065;BME280;62421;51.412;5.432;2024-03-08T05:44:05;101351.91;;;0.24;100.00
74065;BME280;62421;51.412;5.432;2024-03-08T05:46:30;101352.75;;;0.26;100.00
74065;BME280;62421;51.412;5.432;2024-03-08T05:48:55;101346.66;;;0.23;100.00
74065;BME280;62421;51.412;5.432;2024-03-08T05:51:23;101337.91;;;0.19;100.00
74065;BME280;62421;51.412;5.432;2024-03-08T05:53:49;101340.59;;;0.17;100.00
74065;BME280;62421;51.412;5.432;2024-03-08T05:56:14;101334.41;;;0.17;100.00
74065;BME280;62421;51.412;5.432;2024-03-08T05:58:39;101344.09;;;0.18;100.00
74065;BME280;62421;51.412;5.432;2024-03-08T06:01:05;101342.34;;;0.17;100.00
74065;BME280;62421;51.412;5.432;2024-03-08T06:03:33;101341.56;;;0.13;100.00
74065;BME280;62421;51.412;5.432;2024-03-08T06:05:59;101345.13;;;0.11;100.00
74065;BME280;62421;51.412;5.432;2024-03-08T06:08:24;101335.47;;;0.08;100.00
74065;BME280;62421;51.412;5.432;2024-03-08T06:10:55;101325.84;;;0.06;100.00
74065;BME280;62421;51.412;5.432;2024-03-08T06:13:20;101332.91;;;0.05;100.00
74065;BME280;62421;51.412;5.432;2024-03-08T06:15:45;101323.09;;;0.12;100.00
74065;BME280;62421;51.412;5.432;2024-03-08T06:18:11;101324.78;;;0.16;100.00
74065;BME280;62421;51.412;5.432;2024-03-08T06:20:37;101320.38;;;0.15;100.00
74065;BME280;62421;51.412;5.432;2024-03-08T06:23:02;101313.34;;;0.15;100.00
74065;BME280;62421;51.412;5.432;2024-03-08T06:25:27;101315.94;;;0.17;100.00
74065;BME280;62421;51.412;5.432;2024-03-08T06:27:52;101312.41;;;0.18;100.00
74065;BME280;62421;51.412;5.432;2024-03-08T06:30:18;101312.38;;;0.19;100.00
74065;BME280;62421;51.412;5.432;2024-03-08T06:32:45;101318.47;;;0.23;100.00
74065;BME280;62421;51.412;5.432;2024-03-08T06:35:10;101315.81;;;0.23;100.00
74065;BME280;62421;51.412;5.432;2024-03-08T06:37:36;101314.94;;;0.24;100.00
74065;BME280;62421;51.412;5.432;2024-03-08T06:40:02;101318.41;;;0.26;100.00
74065;BME280;62421;51.412;5.432;2024-03-08T06:42:28;101306.94;;;0.27;100.00
74065;BME280;62421;51.412;5.432;2024-03-08T06:44:54;101306.00;;;0.30;100.00
74065;BME280;62421;51.412;5.432;2024-03-08T06:47:22;101306.78;;;0.35;100.00
74065;BME280;62421;51.412;5.432;2024-03-08T06:49:50;101305.91;;;0.34;100.00
74065;BME280;62421;51.412;5.432;2024-03-08T06:52:17;101314.72;;;0.35;100.00
74065;BME280;62421;51.412;5.432;2024-03-08T06:54:42;101310.28;;;0.35;100.00
74065;BME280;62421;51.412;5.432;2024-03-08T06:57:08;101313.81;;;0.36;100.00
74065;BME280;62421;51.412;5.432;2024-03-08T06:59:35;101312.06;;;0.35;100.00
74065;BME280;62421;51.412;5.432;2024-03-08T07:02:01;101313.78;;;0.37;100.00
74065;BME280;62421;51.412;5.432;2024-03-08T07:04:27;101310.19;;;0.40;100.00
74065;BME280;62421;51.412;5.432;2024-03-08T07:06:55;101303.09;;;0.42;100.00
74065;BME280;62421;51.412;5.432;2024-03-08T07:09:20;101313.66;;;0.44;100.00
74065;BME280;62421;51.412;5.432;2024-03-08T07:11:46;101302.97;;;0.50;100.00
74065;BME280;62421;51.412;5.432;2024-03-08T07:14:12;101307.28;;;0.54;100.00
74065;BME280;62421;51.412;5.432;2024-03-08T07:16:37;101294.88;;;0.56;100.00
74065;BME280;62421;51.412;5.432;2024-03-08T07:19:03;101297.44;;;0.60;100.00
74065;BME280;62421;51.412;5.432;2024-03-08T07:21:30;101298.22;;;0.66;100.00
74065;BME280;62421;51.412;5.432;2024-03-08T07:23:56;101294.56;;;0.71;100.00
74065;BME280;62421;51.412;5.432;2024-03-08T07:26:35;101294.34;;;0.80;100.00
74065;BME280;62421;51.412;5.432;2024-03-08T07:29:00;101289.88;;;0.84;100.00
74065;BME280;62421;51.412;5.432;2024-03-08T07:31:26;101288.00;;;0.88;100.00
74065;BME280;62421;51.412;5.432;2024-03-08T07:33:51;101287.06;;;0.90;100.00
74065;BME280;62421;51.412;5.432;2024-03-08T07:36:18;101282.69;;;0.89;100.00
74065;BME280;62421;51.412;5.432;2024-03-08T07:38:44;101284.41;;;0.92;100.00
74065;BME280;62421;51.412;5.432;2024-03-08T07:41:12;101262.19;;;0.99;100.00
74065;BME280;62421;51.412;5.432;2024-03-08T07:43:38;101275.16;;;1.10;100.00
74065;BME280;62421;51.412;5.432;2024-03-08T07:46:03;101262.59;;;1.19;100.00
74065;BME280;62421;51.412;5.432;2024-03-08T07:48:28;101271.19;;;1.29;100.00
74065;BME280;62421;51.412;5.432;2024-03-08T07:50:55;101271.06;;;1.34;100.00
74065;BME280;62421;51.412;5.432;2024-03-08T07:53:21;101251.56;;;1.38;100.00
74065;BME280;62421;51.412;5.432;2024-03-08T07:55:47;101265.63;;;1.40;100.00
74065;BME280;62421;51.412;5.432;2024-03-08T07:58:12;101254.13;;;1.41;100.00
74065;BME280;62421;51.412;5.432;2024-03-08T08:00:38;101257.41;;;1.51;100.00
74065;BME280;62421;51.412;5.432;2024-03-08T08:03:04;101250.00;;;1.63;100.00
74065;BME280;62421;51.412;5.432;2024-03-08T08:05:30;101253.38;;;1.70;100.00
74065;BME280;62421;51.412;5.432;2024-03-08T08:07:59;101248.94;;;1.71;100.00
74065;BME280;62421;51.412;5.432;2024-03-08T08:10:24;101253.25;;;1.73;100.00
74065;BME280;62421;51.412;5.432;2024-03-08T08:12:50;101238.25;;;1.74;100.00
74065;BME280;62421;51.412;5.432;2024-03-08T08:15:16;101237.34;;;1.75;100.00
74065;BME280;62421;51.412;5.432;2024-03-08T08:17:43;101231.06;;;1.79;100.00
74065;BME280;62421;51.412;5.432;2024-03-08T08:20:10;101231.75;;;1.86;100.00
74065;BME280;62421;51.412;5.432;2024-03-08T08:22:37;101231.69;;;1.87;100.00
74065;BME280;62421;51.412;5.432;2024-03-08T08:25:03;101229.50;;;2.03;100.00
74065;BME280;62421;51.412;5.432;2024-03-08T08:27:29;101231.00;;;2.12;100.00
74065;BME280;62421;51.412;5.432;2024-03-08T08:29:54;101217.63;;;2.16;100.00
74065;BME280;62421;51.412;5.432;2024-03-08T08:32:21;101211.47;;;2.16;100.00
74065;BME280;62421;51.412;5.432;2024-03-08T08:34:46;101213.94;;;2.22;100.00
74065;BME280;62421;51.412;5.432;2024-03-08T08:37:11;101221.81;;;2.23;100.00
74065;BME280;62421;51.412;5.432;2024-03-08T08:39:37;101211.16;;;2.27;100.00
74065;BME280;62421;51.412;5.432;2024-03-08T08:42:03;101211.03;;;2.30;100.00
74065;BME280;62421;51.412;5.432;2024-03-08T08:44:29;101208.03;;;2.42;100.00
74065;BME280;62421;51.412;5.432;2024-03-08T08:46:56;101210.41;;;2.51;100.00
74065;BME280;62421;51.412;5.432;2024-03-08T08:49:22;101213.47;;;2.67;100.00
74065;BME280;62421;51.412;5.432;2024-03-08T08:51:52;101199.94;;;2.75;100.00
74065;BME280;62421;51.412;5.432;2024-03-08T08:54:18;101197.69;;;2.91;100.00
74065;BME280;62421;51.412;5.432;2024-03-08T08:56:44;101196.59;;;2.96;100.00
74065;BME280;62421;51.412;5.432;2024-03-08T08:59:09;101201.53;;;3.07;100.00
74065;BME280;62421;51.412;5.432;2024-03-08T09:01:40;101185.41;;;3.13;100.00
74065;BME280;62421;51.412;5.432;2024-03-08T09:04:05;101187.06;;;3.17;100.00
74065;BME280;62421;51.412;5.432;2024-03-08T09:06:31;101180.78;;;3.20;100.00
74065;BME280;62421;51.412;5.432;2024-03-08T09:08:56;101178.84;;;3.25;100.00
74065;BME280;62421;51.412;5.432;2024-03-08T09:11:23;101177.78;;;3.29;100.00
74065;BME280;62421;51.412;5.432;2024-03-08T09:13:48;101166.09;;;3.35;100.00
74065;BME280;62421;51.412;5.432;2024-03-08T09:16:14;101155.03;;;3.48;100.00
74065;BME280;62421;51.412;5.432;2024-03-08T09:18:39;101153.81;;;3.57;100.00
74065;BME280;62421;51.412;5.432;2024-03-08T09:21:05;101150.91;;;3.63;100.00
74065;BME280;62421;51.412;5.432;2024-03-08T09:23:30;101153.47;;;3.66;100.00
74065;BME280;62421;51.412;5.432;2024-03-08T09:25:56;101139.03;;;3.74;100.00
74065;BME280;62421;51.412;5.432;2024-03-08T09:28:24;101135.34;;;3.78;100.00
74065;BME280;62421;51.412;5.432;2024-03-08T09:30:50;101135.06;;;3.85;100.00
74065;BME280;62421;51.412;5.432;2024-03-08T09:33:15;101124.91;;;3.97;100.00
74065;BME280;62421;51.412;5.432;2024-03-08T09:35:45;101126.38;;;4.04;100.00
74065;BME280;62421;51.412;5.432;2024-03-08T09:38:12;101105.66;;;4.14;100.00
74065;BME280;62421;51.412;5.432;2024-03-08T09:40:38;101114.19;;;4.22;100.00
74065;BME280;62421;51.412;5.432;2024-03-08T09:43:06;101100.81;;;4.23;100.00
74065;BME280;62421;51.412;5.432;2024-03-08T09:45:35;101088.94;;;4.32;100.00
74065;BME280;62421;51.412;5.432;2024-03-08T09:48:01;101093.94;;;4.41;100.00
74065;BME280;62421;51.412;5.432;2024-03-08T09:50:27;101077.72;;;4.47;100.00
74065;BME280;62421;51.412;5.432;2024-03-08T09:52:55;101084.63;;;4.51;100.00
74065;BME280;62421;51.412;5.432;2024-03-08T09:55:22;101080.91;;;4.56;100.00
74065;BME280;62421;51.412;5.432;2024-03-08T09:57:51;101067.50;;;4.59;100.00
74065;BME280;62421;51.412;5.432;2024-03-08T10:00:36;101058.56;;;4.60;100.00
74065;BME280;62421;51.412;5.432;2024-03-08T10:03:02;101050.41;;;4.64;100.00
74065;BME280;62421;51.412;5.432;2024-03-08T10:05:28;101047.63;;;4.67;100.00
74065;BME280;62421;51.412;5.432;2024-03-08T10:07:53;101051.50;;;4.81;100.00
74065;BME280;62421;51.412;5.432;2024-03-08T10:10:19;101045.66;;;4.93;100.00
74065;BME280;62421;51.412;5.432;2024-03-08T10:12:45;101040.78;;;5.03;100.00
74065;BME280;62421;51.412;5.432;2024-03-08T10:15:11;101050.16;;;5.11;100.00
74065;BME280;62421;51.412;5.432;2024-03-08T10:17:37;101038.38;;;5.17;100.00
74065;BME280;62421;51.412;5.432;2024-03-08T10:20:14;101041.69;;;5.22;100.00
74065;BME280;62421;51.412;5.432;2024-03-08T10:22:40;101042.28;;;5.29;100.00
74065;BME280;62421;51.412;5.432;2024-03-08T10:25:09;101034.09;;;5.33;100.00
74065;BME280;62421;51.412;5.432;2024-03-08T10:27:35;101034.75;;;5.39;100.00
74065;BME280;62421;51.412;5.432;2024-03-08T10:30:01;101017.53;;;5.46;99.08
74065;BME280;62421;51.412;5.432;2024-03-08T10:32:26;101007.56;;;5.51;100.00
74065;BME280;62421;51.412;5.432;2024-03-08T10:34:53;101009.00;;;5.58;100.00
74065;BME280;62421;51.412;5.432;2024-03-08T10:37:21;101005.75;;;5.70;97.18
74065;BME280;62421;51.412;5.432;2024-03-08T10:40:01;100998.75;;;5.87;96.09
74065;BME280;62421;51.412;5.432;2024-03-08T10:42:38;101006.13;;;6.01;92.46
74065;BME280;62421;51.412;5.432;2024-03-08T10:45:06;100998.75;;;6.06;90.97
74065;BME280;62421;51.412;5.432;2024-03-08T10:47:40;100990.53;;;6.10;90.08
74065;BME280;62421;51.412;5.432;2024-03-08T10:50:19;100993.84;;;6.15;93.50
74065;BME280;62421;51.412;5.432;2024-03-08T10:52:51;100979.28;;;6.23;90.97
74065;BME280;62421;51.412;5.432;2024-03-08T10:55:19;100965.56;;;6.30;89.36
74065;BME280;62421;51.412;5.432;2024-03-08T10:57:47;100975.91;;;6.36;90.45
74065;BME280;62421;51.412;5.432;2024-03-08T11:00:13;100964.91;;;6.43;85.85
74065;BME280;62421;51.412;5.432;2024-03-08T11:02:43;100967.16;;;6.52;83.71
74065;BME280;62421;51.412;5.432;2024-03-08T11:05:38;100964.22;;;6.56;88.76
74065;BME280;62421;51.412;5.432;2024-03-08T11:08:24;100963.03;;;6.62;89.65
74065;BME280;62421;51.412;5.432;2024-03-08T11:10:53;100952.75;;;6.72;85.36
74065;BME280;62421;51.412;5.432;2024-03-08T11:13:40;100942.63;;;6.79;85.26
74065;BME280;62421;51.412;5.432;2024-03-08T11:16:12;100946.69;;;6.86;81.69
74065;BME280;62421;51.412;5.432;2024-03-08T11:18:48;100956.91;;;6.95;81.76
74065;BME280;62421;51.412;5.432;2024-03-08T11:21:14;100943.28;;;7.00;83.93
74065;BME280;62421;51.412;5.432;2024-03-08T11:23:40;100951.84;;;7.06;81.57
74065;BME280;62421;51.412;5.432;2024-03-08T11:26:19;100938.41;;;7.08;85.20
74065;BME280;62421;51.412;5.432;2024-03-08T11:28:45;100928.34;;;7.13;82.24
74065;BME280;62421;51.412;5.432;2024-03-08T11:33:39;100927.66;;;7.25;82.67
74065;BME280;62421;51.412;5.432;2024-03-08T11:36:35;100929.22;;;7.29;85.78
74065;BME280;62421;51.412;5.432;2024-03-08T11:39:02;100931.31;;;7.40;81.01
74065;BME280;62421;51.412;5.432;2024-03-08T11:41:34;100924.66;;;7.47;78.80
74065;BME280;62421;51.412;5.432;2024-03-08T11:44:04;100913.91;;;7.49;78.65
74065;BME280;62421;51.412;5.432;2024-03-08T11:46:30;100908.56;;;7.49;77.65
74065;BME280;62421;51.412;5.432;2024-03-08T11:48:56;100908.28;;;7.53;79.07
74065;BME280;62421;51.412;5.432;2024-03-08T11:51:21;100905.94;;;7.63;75.56
74065;BME280;62421;51.412;5.432;2024-03-08T11:53:49;100897.78;;;7.66;76.18
74065;BME280;62421;51.412;5.432;2024-03-08T11:56:15;100904.75;;;7.69;74.80
74065;BME280;62421;51.412;5.432;2024-03-08T11:58:41;100888.72;;;7.69;77.11
74065;BME280;62421;51.412;5.432;2024-03-08T12:01:07;100888.38;;;7.75;76.60
74065;BME280;62421;51.412;5.432;2024-03-08T12:03:38;100887.06;;;7.82;76.13
74065;BME280;62421;51.412;5.432;2024-03-08T12:06:03;100886.69;;;7.88;76.76
74065;BME280;62421;51.412;5.432;2024-03-08T12:08:32;100880.31;;;7.91;78.55
74065;BME280;62421;51.412;5.432;2024-03-08T12:10:58;100883.66;;;7.94;75.40
74065;BME280;62421;51.412;5.432;2024-03-08T12:13:27;100882.53;;;7.98;78.48
74065;BME280;62421;51.412;5.432;2024-03-08T12:15:58;100876.72;;;8.06;72.85
74065;BME280;62421;51.412;5.432;2024-03-08T12:18:25;100858.88;;;8.07;72.54
74065;BME280;62421;51.412;5.432;2024-03-08T12:20:51;100865.19;;;8.06;74.50
74065;BME280;62421;51.412;5.432;2024-03-08T12:23:17;100857.84;;;8.09;73.20
74065;BME280;62421;51.412;5.432;2024-03-08T12:25:42;100866.72;;;8.10;71.63
74065;BME280;62421;51.412;5.432;2024-03-08T12:28:09;100850.59;;;8.11;72.17
74065;BME280;62421;51.412;5.432;2024-03-08T12:30:49;100852.22;;;8.14;74.35
74065;BME280;62421;51.412;5.432;2024-03-08T12:33:16;100853.91;;;8.15;71.79
74065;BME280;62421;51.412;5.432;2024-03-08T12:35:50;100854.69;;;8.17;73.01
74065;BME280;62421;51.412;5.432;2024-03-08T12:38:19;100840.47;;;8.16;72.75
74065;BME280;62421;51.412;5.432;2024-03-08T12:40:49;100839.41;;;8.19;72.19
74065;BME280;62421;51.412;5.432;2024-03-08T12:43:14;100831.31;;;8.20;72.48
74065;BME280;62421;51.412;5.432;2024-03-08T12:45:40;100822.22;;;8.23;72.73
74065;BME280;62421;51.412;5.432;2024-03-08T12:48:13;100842.50;;;8.27;73.37
74065;BME280;62421;51.412;5.432;2024-03-08T12:50:42;100832.56;;;8.29;71.69
74065;BME280;62421;51.412;5.432;2024-03-08T12:53:10;100825.38;;;8.30;71.43